Time;durP1;ratioP1;P1;durP2;ratioP2;P2;SDS_P1;SDS_P2;PMS_P1;PMS_P2;Temp;Humidity;BMP_temperature;BMP_pressure;BME280_temperature;BME280_humidity;BME280_pressure;Samples;Min_cycle;Max_cycle;Signal;HPM_P1;HPM_P2
2023/07/06 00:00:32;;;;;;;4.80;4.37;;;;;;;;;;5030363;28;20256;-79
2023/07/06 00:03:02;;;;;;;5.77;5.13;;;;;;;;;;5013828;28;20234;-78
2023/07/06 00:05:30;;;;;;;5.63;4.70;;;;;;;;;;5011142;28;20262;-78
2023/07/06 00:07:58;;;;;;;5.93;4.93;;;;;;;;;;5011693;28;20292;-78
2023/07/06 00:10:25;;;;;;;4.97;4.57;;;;;;;;;;5013639;28;20202;-77
2023/07/06 00:12:52;;;;;;;5.50;4.57;;;;;;;;;;5017454;28;20203;-78
2023/07/06 00:15:19;;;;;;;5.60;5.10;;;;;;;;;;5013688;28;20235;-78
2023/07/06 00:17:47;;;;;;;4.30;4.00;;;;;;;;;;5030623;28;20708;-77
2023/07/06 00:20:15;;;;;;;6.00;4.73;;;;;;;;;;5031413;28;20294;-78
2023/07/06 00:22:42;;;;;;;4.93;4.53;;;;;;;;;;5030677;28;20278;-78
2023/07/06 00:25:09;;;;;;;7.80;5.00;;;;;;;;;;5031445;28;20586;-78
2023/07/06 00:27:37;;;;;;;6.53;5.50;;;;;;;;;;5029469;28;20226;-78
2023/07/06 00:30:15;;;;;;;5.40;4.90;;;;;;;;;;5030058;28;20203;-78
2023/07/06 00:32:43;;;;;;;6.50;5.50;;;;;;;;;;5011127;28;20206;-78
2023/07/06 00:35:10;;;;;;;6.97;5.67;;;;;;;;;;5025527;28;20206;-78
2023/07/06 00:37:39;;;;;;;7.27;6.57;;;;;;;;;;5010125;28;20286;-78
2023/07/06 00:40:09;;;;;;;6.70;6.03;;;;;;;;;;5026213;28;20598;-78
2023/07/06 00:42:36;;;;;;;7.33;6.20;;;;;;;;;;5029174;28;20257;-78
2023/07/06 00:45:04;;;;;;;6.80;6.20;;;;;;;;;;5029346;28;20298;-78
2023/07/06 00:47:33;;;;;;;7.30;6.60;;;;;;;;;;5034048;28;20312;-78
2023/07/06 00:50:06;;;;;;;7.53;6.83;;;;;;;;;;5037045;28;20202;-78
2023/07/06 00:52:34;;;;;;;8.43;7.07;;;;;;;;;;5037040;28;20231;-77
2023/07/06 00:55:04;;;;;;;7.73;6.93;;;;;;;;;;5037455;28;20202;-78
2023/07/06 00:57:32;;;;;;;6.37;5.73;;;;;;;;;;5035882;28;20402;-78
2023/07/06 00:59:59;;;;;;;7.37;6.63;;;;;;;;;;5036899;28;20210;-78
2023/07/06 01:02:27;;;;;;;9.13;6.20;;;;;;;;;;5035793;28;20206;-78
2023/07/06 01:04:54;;;;;;;8.37;6.27;;;;;;;;;;5024092;28;20207;-78
2023/07/06 01:07:24;;;;;;;7.17;6.47;;;;;;;;;;5035696;28;20712;-78
2023/07/06 01:09:52;;;;;;;6.33;5.83;;;;;;;;;;5037313;28;20636;-78
2023/07/06 01:12:23;;;;;;;7.07;6.33;;;;;;;;;;5022611;28;20226;-78
2023/07/06 01:14:50;;;;;;;6.97;5.67;;;;;;;;;;5037240;28;20226;-78
2023/07/06 01:17:23;;;;;;;6.67;6.07;;;;;;;;;;5035839;28;20643;-78
2023/07/06 01:20:02;;;;;;;6.93;6.33;;;;;;;;;;5036598;28;20688;-78
2023/07/06 01:23:06;;;;;;;8.60;7.53;;;;;;;;;;5036866;28;20213;-78
2023/07/06 01:25:47;;;;;;;7.00;6.37;;;;;;;;;;5035597;28;20593;-77
2023/07/06 01:28:31;;;;;;;6.60;5.80;;;;;;;;;;5036596;28;20234;-78
2023/07/06 01:31:13;;;;;;;7.57;6.80;;;;;;;;;;5037291;28;20583;-78
2023/07/06 01:33:47;;;;;;;17.67;9.07;;;;;;;;;;5036999;28;20213;-78
2023/07/06 01:36:19;;;;;;;6.67;6.03;;;;;;;;;;5035748;28;20202;-78
2023/07/06 01:38:48;;;;;;;6.90;6.30;;;;;;;;;;5035635;28;20221;-78
2023/07/06 01:41:15;;;;;;;10.60;6.70;;;;;;;;;;5037123;28;20283;-78
2023/07/06 01:43:43;;;;;;;7.03;6.43;;;;;;;;;;5015649;28;20204;-78
2023/07/06 01:46:10;;;;;;;8.60;7.67;;;;;;;;;;5028137;28;20233;-78
2023/07/06 01:48:39;;;;;;;6.90;6.17;;;;;;;;;;5035076;28;20218;-78
2023/07/06 01:51:13;;;;;;;11.63;6.43;;;;;;;;;;5034455;28;20207;-78
2023/07/06 01:53:44;;;;;;;9.20;6.30;;;;;;;;;;5019328;28;20252;-78
2023/07/06 01:56:17;;;;;;;7.20;6.17;;;;;;;;;;5036415;28;20206;-78
2023/07/06 01:58:49;;;;;;;7.23;6.10;;;;;;;;;;5033525;28;20201;-78
2023/07/06 02:01:19;;;;;;;5.97;5.47;;;;;;;;;;5033808;28;20213;-78
2023/07/06 02:03:50;;;;;;;6.90;5.67;;;;;;;;;;5032340;28;20206;-77
2023/07/06 02:06:17;;;;;;;6.17;5.17;;;;;;;;;;5033717;28;20696;-78
2023/07/06 02:08:44;;;;;;;6.13;5.27;;;;;;;;;;5032853;28;20231;-78
2023/07/06 02:11:11;;;;;;;5.53;4.93;;;;;;;;;;5032105;28;20218;-78
2023/07/06 02:13:39;;;;;;;6.93;5.77;;;;;;;;;;5033585;28;20594;-78
2023/07/06 02:16:07;;;;;;;5.97;5.37;;;;;;;;;;5032095;28;20234;-78
2023/07/06 02:18:34;;;;;;;6.27;5.60;;;;;;;;;;5012485;28;20207;-78
2023/07/06 02:21:03;;;;;;;6.87;6.13;;;;;;;;;;5028844;28;20234;-78
2023/07/06 02:23:30;;;;;;;7.43;5.73;;;;;;;;;;5032822;28;20604;-78
2023/07/06 02:25:57;;;;;;;5.90;5.47;;;;;;;;;;5033180;28;20260;-78
2023/07/06 02:28:25;;;;;;;5.33;4.80;;;;;;;;;;5031776;28;20720;-78
2023/07/06 02:30:53;;;;;;;5.07;4.63;;;;;;;;;;5031747;28;20286;-77
2023/07/06 02:33:21;;;;;;;5.03;4.60;;;;;;;;;;5032810;28;20198;-78
2023/07/06 02:35:48;;;;;;;5.17;4.70;;;;;;;;;;5032838;28;20207;-78
2023/07/06 02:38:19;;;;;;;5.50;4.97;;;;;;;;;;5032631;28;20609;-78
2023/07/06 02:40:48;;;;;;;5.37;4.93;;;;;;;;;;5032699;28;20204;-78
2023/07/06 02:43:15;;;;;;;5.73;5.23;;;;;;;;;;5032289;28;20692;-78
2023/07/06 02:45:42;;;;;;;7.13;4.63;;;;;;;;;;5013027;28;20209;-78
2023/07/06 02:48:09;;;;;;;6.33;4.17;;;;;;;;;;5020415;28;20598;-78
2023/07/06 02:50:36;;;;;;;8.87;5.57;;;;;;;;;;5018163;28;20202;-78
2023/07/06 02:53:03;;;;;;;4.53;4.13;;;;;;;;;;5014841;28;20214;-78
2023/07/06 02:55:32;;;;;;;4.27;3.87;;;;;;;;;;5032175;28;20203;-78
2023/07/06 02:57:59;;;;;;;4.57;4.17;;;;;;;;;;5031362;28;20198;-78
2023/07/06 03:00:26;;;;;;;4.57;4.10;;;;;;;;;;5032321;28;20693;-78
2023/07/06 03:02:54;;;;;;;4.17;3.70;;;;;;;;;;5012257;28;20207;-78
2023/07/06 03:05:22;;;;;;;5.63;5.03;;;;;;;;;;5032328;28;20294;-78
2023/07/06 03:07:51;;;;;;;4.80;4.40;;;;;;;;;;5032092;28;20230;-78
2023/07/06 03:10:19;;;;;;;4.70;4.33;;;;;;;;;;5031656;28;20294;-78
2023/07/06 03:12:48;;;;;;;4.40;4.10;;;;;;;;;;5031687;28;20234;-78
2023/07/06 03:15:17;;;;;;;5.90;3.83;;;;;;;;;;5027434;28;20247;-78
2023/07/06 03:17:48;;;;;;;4.67;3.67;;;;;;;;;;5007261;28;20207;-78
2023/07/06 03:20:19;;;;;;;7.90;4.27;;;;;;;;;;5012879;28;20262;-78
2023/07/06 03:22:48;;;;;;;4.33;3.93;;;;;;;;;;5011649;28;20702;-79
2023/07/06 03:25:15;;;;;;;4.73;4.33;;;;;;;;;;5027766;28;20215;-78
2023/07/06 03:27:43;;;;;;;3.60;3.30;;;;;;;;;;5031650;28;20227;-77
2023/07/06 03:30:14;;;;;;;6.83;3.67;;;;;;;;;;5014907;28;20253;-78
2023/07/06 03:32:42;;;;;;;5.83;3.40;;;;;;;;;;5011021;28;20690;-77
2023/07/06 03:35:10;;;;;;;3.40;3.20;;;;;;;;;;5026797;28;20237;-78
2023/07/06 03:37:38;;;;;;;4.73;3.20;;;;;;;;;;5030522;28;20203;-77
2023/07/06 03:40:10;;;;;;;4.00;3.70;;;;;;;;;;5031235;28;20210;-77
2023/07/06 03:42:39;;;;;;;4.43;3.80;;;;;;;;;;5030500;28;20211;-78
2023/07/06 03:45:08;;;;;;;3.90;3.27;;;;;;;;;;5031795;28;20290;-78
2023/07/06 03:47:45;;;;;;;4.67;3.50;;;;;;;;;;5029986;28;20239;-77
2023/07/06 03:50:14;;;;;;;3.67;3.37;;;;;;;;;;5031475;28;20195;-78
2023/07/06 03:52:42;;;;;;;3.80;3.40;;;;;;;;;;5030393;28;20268;-78
2023/07/06 03:55:14;;;;;;;4.17;3.77;;;;;;;;;;5018511;28;20201;-77
2023/07/06 03:57:45;;;;;;;4.00;3.70;;;;;;;;;;5013901;28;20203;-78
2023/07/06 04:00:19;;;;;;;4.00;3.53;;;;;;;;;;5029420;28;20206;-77
2023/07/06 04:02:48;;;;;;;3.27;3.07;;;;;;;;;;5029655;28;20198;-78
2023/07/06 04:05:17;;;;;;;7.67;4.23;;;;;;;;;;5031594;28;20598;-80
2023/07/06 04:07:44;;;;;;;3.87;3.57;;;;;;;;;;5030474;28;20222;-78
2023/07/06 04:10:12;;;;;;;4.83;3.37;;;;;;;;;;5027969;28;20215;-78
2023/07/06 04:12:39;;;;;;;6.10;3.50;;;;;;;;;;5025196;28;20286;-78
2023/07/06 04:15:08;;;;;;;4.70;4.03;;;;;;;;;;5027574;28;20325;-78
2023/07/06 04:17:36;;;;;;;3.83;3.37;;;;;;;;;;5030532;28;20677;-78
2023/07/06 04:20:18;;;;;;;3.97;3.67;;;;;;;;;;5029184;28;20213;-78
2023/07/06 04:22:44;;;;;;;3.53;3.23;;;;;;;;;;5017488;28;20206;-78
2023/07/06 04:25:11;;;;;;;3.80;3.50;;;;;;;;;;5029975;28;20214;-78
2023/07/06 04:27:40;;;;;;;4.00;3.70;;;;;;;;;;5016234;28;20226;-80
2023/07/06 04:30:09;;;;;;;4.10;3.73;;;;;;;;;;5013708;28;20257;-80
2023/07/06 04:32:36;;;;;;;5.13;4.07;;;;;;;;;;5017561;28;20203;-81
2023/07/06 04:35:07;;;;;;;3.53;3.23;;;;;;;;;;5030574;28;20211;-81
2023/07/06 04:37:34;;;;;;;5.30;3.73;;;;;;;;;;5026984;28;20230;-81
2023/07/06 04:40:01;;;;;;;4.23;3.70;;;;;;;;;;5028280;28;20203;-81
2023/07/06 04:42:29;;;;;;;3.77;3.43;;;;;;;;;;5026705;28;20753;-81
2023/07/06 04:44:56;;;;;;;3.83;3.53;;;;;;;;;;5030669;28;20655;-81
2023/07/06 04:47:23;;;;;;;5.73;4.20;;;;;;;;;;5029995;28;20685;-80
2023/07/06 04:49:50;;;;;;;5.30;3.83;;;;;;;;;;5029381;28;20230;-81
2023/07/06 04:52:19;;;;;;;4.67;3.77;;;;;;;;;;5030570;28;20693;-80
2023/07/06 04:54:50;;;;;;;3.53;3.27;;;;;;;;;;5028874;28;20225;-80
2023/07/06 04:57:17;;;;;;;4.30;3.90;;;;;;;;;;5030175;28;20231;-81
2023/07/06 04:59:44;;;;;;;4.07;3.67;;;;;;;;;;5029816;28;20675;-81
2023/07/06 05:02:11;;;;;;;4.43;4.10;;;;;;;;;;5029751;28;20206;-80
2023/07/06 05:04:40;;;;;;;4.37;3.90;;;;;;;;;;5029915;28;20202;-81
2023/07/06 05:07:07;;;;;;;3.47;3.17;;;;;;;;;;5029456;28;20207;-80
2023/07/06 05:09:36;;;;;;;3.70;3.40;;;;;;;;;;5030481;28;20237;-80
2023/07/06 05:12:03;;;;;;;3.77;3.47;;;;;;;;;;5030430;28;20214;-81
2023/07/06 05:14:31;;;;;;;3.50;3.20;;;;;;;;;;5030336;28;20210;-81
2023/07/06 05:16:58;;;;;;;4.53;3.37;;;;;;;;;;5030611;28;20226;-81
2023/07/06 05:19:24;;;;;;;4.27;2.93;;;;;;;;;;5030351;28;20716;-81
2023/07/06 05:21:55;;;;;;;4.17;3.87;;;;;;;;;;5030016;28;20203;-81
2023/07/06 05:24:21;;;;;;;3.97;3.57;;;;;;;;;;5030397;28;20615;-81
2023/07/06 05:26:49;;;;;;;3.27;3.07;;;;;;;;;;5030575;28;20207;-81
2023/07/06 05:29:16;;;;;;;6.33;3.60;;;;;;;;;;5030349;28;20302;-81
2023/07/06 05:31:45;;;;;;;4.03;3.63;;;;;;;;;;5029968;28;20674;-81
2023/07/06 05:34:11;;;;;;;4.03;3.73;;;;;;;;;;5031677;28;20203;-81
2023/07/06 05:36:38;;;;;;;4.53;4.13;;;;;;;;;;5034066;28;20265;-80
2023/07/06 05:39:06;;;;;;;4.70;3.70;;;;;;;;;;5033678;28;20199;-81
2023/07/06 05:41:33;;;;;;;6.40;3.93;;;;;;;;;;5033623;28;20234;-80
2023/07/06 05:44:02;;;;;;;3.90;3.60;;;;;;;;;;5034009;28;20202;-80
2023/07/06 05:46:28;;;;;;;4.50;4.00;;;;;;;;;;5033723;28;20209;-81
2023/07/06 05:48:58;;;;;;;4.30;4.00;;;;;;;;;;5033563;28;20241;-81
2023/07/06 05:51:26;;;;;;;5.30;3.90;;;;;;;;;;5033631;28;20199;-80
2023/07/06 05:53:53;;;;;;;3.97;3.43;;;;;;;;;;5033529;28;20206;-81
2023/07/06 05:56:21;;;;;;;5.43;4.10;;;;;;;;;;5033747;28;20681;-81
2023/07/06 05:58:48;;;;;;;3.77;3.40;;;;;;;;;;5033570;28;20213;-81
2023/07/06 06:01:19;;;;;;;4.13;3.67;;;;;;;;;;5033306;28;20205;-81
2023/07/06 06:03:46;;;;;;;5.10;4.50;;;;;;;;;;5033232;28;20693;-82
2023/07/06 06:06:13;;;;;;;4.00;3.60;;;;;;;;;;5033722;28;20214;-81
2023/07/06 06:08:40;;;;;;;4.83;4.40;;;;;;;;;;5033472;28;20222;-81
2023/07/06 06:11:06;;;;;;;3.63;3.33;;;;;;;;;;5033643;28;20213;-81
2023/07/06 06:13:33;;;;;;;4.57;4.17;;;;;;;;;;5033387;28;20215;-81
2023/07/06 06:16:00;;;;;;;5.50;3.67;;;;;;;;;;5033378;28;20235;-81
2023/07/06 06:18:29;;;;;;;5.07;4.37;;;;;;;;;;5032947;28;20215;-81
2023/07/06 06:20:58;;;;;;;6.67;4.73;;;;;;;;;;5033365;28;20202;-81
2023/07/06 06:23:25;;;;;;;4.40;4.10;;;;;;;;;;5033352;28;20216;-81
2023/07/06 06:25:52;;;;;;;4.20;3.80;;;;;;;;;;5033128;28;20703;-81
2023/07/06 06:28:20;;;;;;;5.60;3.70;;;;;;;;;;5032742;28;20222;-81
2023/07/06 06:30:46;;;;;;;6.73;4.73;;;;;;;;;;5032737;28;20206;-81
2023/07/06 06:33:13;;;;;;;7.77;4.30;;;;;;;;;;5032861;28;20214;-81
2023/07/06 06:35:41;;;;;;;3.90;3.60;;;;;;;;;;5033387;28;20198;-81
2023/07/06 06:38:08;;;;;;;5.60;5.20;;;;;;;;;;5032457;28;20207;-81
2023/07/06 06:40:36;;;;;;;8.07;4.37;;;;;;;;;;5032618;28;20198;-81
2023/07/06 06:43:03;;;;;;;4.27;3.87;;;;;;;;;;5032454;28;20600;-81
2023/07/06 06:45:30;;;;;;;4.25;3.65;;;;;;;;;;5032933;28;20226;-81
2023/07/06 06:47:56;;;;;;;4.10;3.77;;;;;;;;;;5032104;28;20198;-81
2023/07/06 06:50:23;;;;;;;4.65;4.25;;;;;;;;;;5032601;28;20215;-81
2023/07/06 06:52:52;;;;;;;5.90;4.15;;;;;;;;;;5032813;28;20202;-82
2023/07/06 06:55:19;;;;;;;4.17;3.87;;;;;;;;;;5032570;28;20210;-81
2023/07/06 06:57:46;;;;;;;4.90;3.90;;;;;;;;;;5032109;28;20199;-81
2023/07/06 07:00:16;;;;;;;4.40;4.07;;;;;;;;;;5032531;28;20207;-81
2023/07/06 07:02:42;;;;;;;4.85;4.45;;;;;;;;;;5032088;28;20235;-81
2023/07/06 07:05:10;;;;;;;4.90;4.30;;;;;;;;;;5032418;28;20202;-81
2023/07/06 07:07:38;;;;;;;4.45;4.15;;;;;;;;;;5031777;28;20199;-81
2023/07/06 07:10:09;;;;;;;4.72;4.22;;;;;;;;;;5032168;28;20328;-81
2023/07/06 07:12:36;;;;;;;5.22;4.47;;;;;;;;;;5032376;28;20210;-81
2023/07/06 07:15:04;;;;;;;3.88;3.58;;;;;;;;;;5032215;28;20214;-82
2023/07/06 07:17:31;;;;;;;4.40;4.10;;;;;;;;;;5032173;28;20195;-81
2023/07/06 07:19:57;;;;;;;4.68;4.28;;;;;;;;;;5031859;28;20210;-81
2023/07/06 07:22:25;;;;;;;3.90;3.60;;;;;;;;;;5031785;28;20210;-81
2023/07/06 07:24:51;;;;;;;4.40;4.00;;;;;;;;;;5032279;28;20195;-82
2023/07/06 07:27:20;;;;;;;5.07;4.68;;;;;;;;;;5031466;28;20199;-81
2023/07/06 07:29:47;;;;;;;5.10;4.15;;;;;;;;;;5031843;28;20345;-81
2023/07/06 07:32:14;;;;;;;4.38;3.55;;;;;;;;;;5032027;28;20263;-81
2023/07/06 07:34:43;;;;;;;5.55;4.22;;;;;;;;;;5031847;28;20199;-81
2023/07/06 07:37:10;;;;;;;6.57;4.95;;;;;;;;;;5031930;28;20290;-81
2023/07/06 07:39:38;;;;;;;7.22;4.72;;;;;;;;;;5031836;28;20207;-81
2023/07/06 07:42:05;;;;;;;5.22;4.03;;;;;;;;;;5031197;28;20209;-81
2023/07/06 07:44:34;;;;;;;4.43;4.03;;;;;;;;;;5032226;28;20206;-81
2023/07/06 07:47:01;;;;;;;5.18;4.20;;;;;;;;;;5031222;28;20203;-81
2023/07/06 07:49:28;;;;;;;4.50;4.15;;;;;;;;;;5031328;28;20230;-81
2023/07/06 07:51:55;;;;;;;4.35;3.95;;;;;;;;;;5031288;28;20203;-81
2023/07/06 07:54:23;;;;;;;3.95;3.50;;;;;;;;;;5031967;28;20203;-81
2023/07/06 07:56:53;;;;;;;6.25;4.65;;;;;;;;;;5030782;28;20286;-81
2023/07/06 07:59:22;;;;;;;7.32;4.97;;;;;;;;;;5031584;28;20217;-81
2023/07/06 08:01:50;;;;;;;4.50;4.05;;;;;;;;;;5031152;28;20206;-81
2023/07/06 08:04:17;;;;;;;14.25;5.10;;;;;;;;;;5031266;28;20229;-81
2023/07/06 08:06:44;;;;;;;4.15;3.85;;;;;;;;;;5031502;28;20659;-81
2023/07/06 08:09:13;;;;;;;5.60;3.92;;;;;;;;;;5030983;28;20229;-81
2023/07/06 08:11:41;;;;;;;5.88;4.47;;;;;;;;;;5031276;28;20230;-81
2023/07/06 08:14:09;;;;;;;4.28;3.90;;;;;;;;;;5031127;28;20209;-81
2023/07/06 08:16:36;;;;;;;3.97;3.67;;;;;;;;;;5031429;28;20253;-81
2023/07/06 08:19:05;;;;;;;4.65;4.05;;;;;;;;;;5030652;28;20618;-81
2023/07/06 08:21:32;;;;;;;5.10;4.00;;;;;;;;;;5031422;28;20210;-81
2023/07/06 08:23:59;;;;;;;4.28;3.97;;;;;;;;;;5030807;28;20212;-81
2023/07/06 08:26:27;;;;;;;4.47;4.07;;;;;;;;;;5030510;28;20206;-81
2023/07/06 08:28:54;;;;;;;5.38;3.95;;;;;;;;;;5030966;28;20234;-81
2023/07/06 08:31:21;;;;;;;4.25;3.95;;;;;;;;;;5031008;28;20233;-81
2023/07/06 08:33:48;;;;;;;3.80;3.50;;;;;;;;;;5030361;28;20641;-81
2023/07/06 08:36:18;;;;;;;4.38;3.83;;;;;;;;;;5030961;28;20203;-81
2023/07/06 08:38:46;;;;;;;4.32;3.92;;;;;;;;;;5030503;28;20260;-81
2023/07/06 08:41:18;;;;;;;4.25;3.78;;;;;;;;;;5030914;28;20207;-81
2023/07/06 08:43:46;;;;;;;4.45;4.15;;;;;;;;;;5030335;28;20211;-81
2023/07/06 08:46:12;;;;;;;5.35;4.10;;;;;;;;;;5031012;28;20211;-81
2023/07/06 08:48:41;;;;;;;4.25;3.85;;;;;;;;;;5030401;28;20206;-82
2023/07/06 08:51:17;;;;;;;5.00;3.97;;;;;;;;;;5030870;28;20225;-82
2023/07/06 08:53:49;;;;;;;4.57;4.28;;;;;;;;;;5018218;28;20210;-81
2023/07/06 08:56:18;;;;;;;4.30;4.00;;;;;;;;;;5030391;28;20301;-81
2023/07/06 08:58:45;;;;;;;4.60;4.03;;;;;;;;;;5030336;28;20264;-82
2023/07/06 09:01:16;;;;;;;4.78;3.65;;;;;;;;;;5030485;28;20199;-81
2023/07/06 09:03:48;;;;;;;4.57;4.00;;;;;;;;;;5030394;28;20206;-81
2023/07/06 09:06:19;;;;;;;4.50;4.10;;;;;;;;;;5030520;28;20286;-81
2023/07/06 09:08:46;;;;;;;4.03;3.67;;;;;;;;;;5032639;28;20202;-81
2023/07/06 09:11:13;;;;;;;4.32;3.92;;;;;;;;;;5034987;28;20648;-82
2023/07/06 09:13:44;;;;;;;6.32;4.15;;;;;;;;;;5034475;28;20206;-81
2023/07/06 09:16:11;;;;;;;4.57;3.63;;;;;;;;;;5034403;28;20811;-81
2023/07/06 09:18:38;;;;;;;4.03;3.72;;;;;;;;;;5034220;28;20206;-81
2023/07/06 09:21:05;;;;;;;5.97;4.13;;;;;;;;;;5034240;28;20206;-82
2023/07/06 09:23:34;;;;;;;5.07;4.43;;;;;;;;;;5034004;28;20230;-81
2023/07/06 09:26:06;;;;;;;3.92;3.58;;;;;;;;;;5034683;28;20199;-81
2023/07/06 09:28:33;;;;;;;4.70;4.30;;;;;;;;;;5034144;28;20209;-81
2023/07/06 09:31:08;;;;;;;3.72;3.42;;;;;;;;;;5034525;28;20237;-81
2023/07/06 09:33:35;;;;;;;4.78;4.35;;;;;;;;;;5033495;28;20214;-81
2023/07/06 09:36:07;;;;;;;3.67;3.38;;;;;;;;;;5034037;28;20693;-81
2023/07/06 09:38:43;;;;;;;4.18;3.75;;;;;;;;;;5033848;28;20238;-82
2023/07/06 09:41:20;;;;;;;6.15;4.75;;;;;;;;;;5033983;28;20203;-81
2023/07/06 09:43:47;;;;;;;4.72;4.05;;;;;;;;;;5033565;28;20198;-81
2023/07/06 09:46:14;;;;;;;4.15;3.70;;;;;;;;;;5033916;28;20210;-81
2023/07/06 09:48:42;;;;;;;4.40;4.10;;;;;;;;;;5033685;28;20206;-81
2023/07/06 09:51:14;;;;;;;4.47;3.45;;;;;;;;;;5033595;28;20230;-81
2023/07/06 09:53:46;;;;;;;5.43;4.03;;;;;;;;;;5033700;28;20253;-81
2023/07/06 09:56:13;;;;;;;4.00;3.70;;;;;;;;;;5033492;28;20256;-82
2023/07/06 09:58:41;;;;;;;4.40;4.00;;;;;;;;;;5033880;28;20597;-82
2023/07/06 10:01:14;;;;;;;4.57;4.18;;;;;;;;;;5033430;28;20210;-81
2023/07/06 10:03:48;;;;;;;4.15;3.85;;;;;;;;;;5033468;28;20210;-81
2023/07/06 10:06:28;;;;;;;4.95;4.35;;;;;;;;;;5034011;28;20198;-81
2023/07/06 10:09:08;;;;;;;6.05;3.92;;;;;;;;;;5033472;28;20206;-81
2023/07/06 10:11:38;;;;;;;4.50;4.10;;;;;;;;;;5033700;28;20199;-81
2023/07/06 10:14:13;;;;;;;4.03;3.65;;;;;;;;;;5033267;28;20203;-81
2023/07/06 10:16:46;;;;;;;4.22;3.80;;;;;;;;;;5032941;28;20628;-81
2023/07/06 10:19:20;;;;;;;5.28;3.55;;;;;;;;;;5032619;28;20206;-81
2023/07/06 10:21:54;;;;;;;5.05;4.65;;;;;;;;;;5033151;28;21159;-82
2023/07/06 10:24:31;;;;;;;5.07;4.63;;;;;;;;;;5033227;28;20289;-81
2023/07/06 10:27:01;;;;;;;5.18;4.07;;;;;;;;;;5032597;28;20285;-81
2023/07/06 10:29:32;;;;;;;4.35;3.88;;;;;;;;;;5033215;28;20238;-82
2023/07/06 10:32:04;;;;;;;5.22;4.82;;;;;;;;;;5032770;28;20285;-80
2023/07/06 10:34:37;;;;;;;4.35;3.97;;;;;;;;;;5032922;28;20218;-82
2023/07/06 10:37:05;;;;;;;4.70;4.30;;;;;;;;;;5032491;28;20203;-81
2023/07/06 10:40:04;;;;;;;4.90;4.05;;;;;;;;;;5033196;28;20218;-82
2023/07/06 10:42:32;;;;;;;5.05;4.35;;;;;;;;;;5032795;28;20234;-82
2023/07/06 10:45:02;;;;;;;4.60;4.25;;;;;;;;;;5032453;28;20213;-81
2023/07/06 10:47:40;;;;;;;3.60;3.40;;;;;;;;;;5033116;28;20203;-81
2023/07/06 10:50:25;;;;;;;4.10;3.80;;;;;;;;;;5032817;28;20245;-82
2023/07/06 10:53:00;;;;;;;5.95;4.03;;;;;;;;;;5032752;28;20679;-81
2023/07/06 10:55:34;;;;;;;5.20;4.72;;;;;;;;;;5032802;28;20209;-82
2023/07/06 10:58:24;;;;;;;5.30;4.28;;;;;;;;;;5032281;28;20206;-82
2023/07/06 11:00:53;;;;;;;6.60;4.50;;;;;;;;;;5032926;28;20209;-82
2023/07/06 11:03:23;;;;;;;4.50;4.05;;;;;;;;;;5032416;28;20289;-82
2023/07/06 11:05:56;;;;;;;4.40;4.07;;;;;;;;;;5031920;28;20631;-82
2023/07/06 11:09:05;;;;;;;5.20;4.28;;;;;;;;;;5032202;28;20202;-82
2023/07/06 11:11:36;;;;;;;4.35;4.03;;;;;;;;;;4986023;28;20222;-82
2023/07/06 11:14:30;;;;;;;5.10;4.65;;;;;;;;;;5032241;28;20206;-82
2023/07/06 11:17:00;;;;;;;4.65;4.32;;;;;;;;;;5032220;28;20261;-82
2023/07/06 11:19:31;;;;;;;4.82;4.30;;;;;;;;;;5032385;28;20285;-82
2023/07/06 11:22:04;;;;;;;4.40;4.00;;;;;;;;;;5031891;28;20238;-82
2023/07/06 11:24:36;;;;;;;4.82;4.25;;;;;;;;;;5019721;28;20199;-82
2023/07/06 11:27:07;;;;;;;5.03;4.63;;;;;;;;;;5031730;28;20211;-82
2023/07/06 11:29:34;;;;;;;4.75;4.35;;;;;;;;;;5032368;28;20221;-82
2023/07/06 11:32:16;;;;;;;5.22;4.45;;;;;;;;;;5030753;28;20234;-82
2023/07/06 11:34:53;;;;;;;4.90;4.40;;;;;;;;;;5032233;28;20214;-82
2023/07/06 11:37:27;;;;;;;4.53;4.10;;;;;;;;;;5031204;28;20210;-82
2023/07/06 11:40:00;;;;;;;4.90;4.60;;;;;;;;;;5031804;28;20202;-82
2023/07/06 11:42:38;;;;;;;4.63;4.22;;;;;;;;;;5031592;28;20988;-82
2023/07/06 11:45:11;;;;;;;3.65;3.35;;;;;;;;;;5031380;28;20680;-82
2023/07/06 11:47:53;;;;;;;4.57;4.28;;;;;;;;;;5031666;28;20210;-82
2023/07/06 11:50:21;;;;;;;4.28;3.88;;;;;;;;;;5031804;28;20222;-82
2023/07/06 11:52:58;;;;;;;4.70;4.30;;;;;;;;;;5031421;28;20268;-82
2023/07/06 11:55:31;;;;;;;5.18;4.78;;;;;;;;;;5032101;28;20211;-83
2023/07/06 11:58:21;;;;;;;5.10;4.70;;;;;;;;;;5031083;28;20210;-82
2023/07/06 12:00:52;;;;;;;5.38;4.65;;;;;;;;;;5031525;28;20211;-82
2023/07/06 12:03:26;;;;;;;4.20;3.90;;;;;;;;;;5031212;28;20199;-82
2023/07/06 12:05:59;;;;;;;4.88;4.40;;;;;;;;;;5031139;28;20739;-82
2023/07/06 12:08:28;;;;;;;4.32;3.95;;;;;;;;;;5031416;28;20206;-82
2023/07/06 12:10:58;;;;;;;4.03;3.72;;;;;;;;;;5031545;28;20257;-82
2023/07/06 12:13:29;;;;;;;5.07;4.68;;;;;;;;;;5031335;28;20202;-82
2023/07/06 12:15:57;;;;;;;6.82;5.05;;;;;;;;;;5031173;28;20230;-82
2023/07/06 12:18:23;;;;;;;5.32;4.82;;;;;;;;;;5030896;28;20198;-82
2023/07/06 12:20:55;;;;;;;4.82;4.30;;;;;;;;;;5030611;28;20596;-81
2023/07/06 12:23:23;;;;;;;5.22;4.25;;;;;;;;;;5030874;28;20198;-82
2023/07/06 12:25:50;;;;;;;4.72;4.32;;;;;;;;;;5031093;28;20211;-82
2023/07/06 12:28:17;;;;;;;6.93;4.35;;;;;;;;;;5031042;28;20206;-82
2023/07/06 12:30:49;;;;;;;5.40;4.90;;;;;;;;;;5031078;28;20222;-82
2023/07/06 12:33:16;;;;;;;5.18;4.38;;;;;;;;;;5030375;28;20226;-82
2023/07/06 12:35:43;;;;;;;4.78;4.38;;;;;;;;;;5031052;28;20207;-82
2023/07/06 12:38:13;;;;;;;4.50;4.20;;;;;;;;;;5030932;28;20225;-82
2023/07/06 12:40:43;;;;;;;4.07;3.80;;;;;;;;;;5030802;28;20211;-82
2023/07/06 12:43:22;;;;;;;5.10;4.55;;;;;;;;;;5029956;28;20234;-81
2023/07/06 12:45:52;;;;;;;5.78;5.05;;;;;;;;;;5031055;28;20282;-82
2023/07/06 12:48:23;;;;;;;4.20;3.90;;;;;;;;;;5030445;28;20681;-82
2023/07/06 12:50:51;;;;;;;4.53;4.13;;;;;;;;;;5030574;28;20227;-82
2023/07/06 12:53:22;;;;;;;7.43;4.25;;;;;;;;;;5030076;28;20202;-82
2023/07/06 12:55:49;;;;;;;4.45;4.03;;;;;;;;;;5031232;28;20633;-82
2023/07/06 12:58:17;;;;;;;4.70;4.30;;;;;;;;;;5030534;28;20597;-82
2023/07/06 13:00:48;;;;;;;4.50;4.10;;;;;;;;;;5030959;28;20214;-82
2023/07/06 13:03:16;;;;;;;4.85;4.28;;;;;;;;;;5029911;28;20645;-82
2023/07/06 13:05:52;;;;;;;5.35;4.95;;;;;;;;;;5030566;28;20202;-82
2023/07/06 13:08:20;;;;;;;5.05;4.65;;;;;;;;;;5018209;28;20210;-82
2023/07/06 13:10:57;;;;;;;6.30;4.20;;;;;;;;;;5030854;28;20230;-82
2023/07/06 13:13:24;;;;;;;5.63;4.93;;;;;;;;;;5030634;28;20676;-82
2023/07/06 13:15:57;;;;;;;5.38;4.18;;;;;;;;;;5030199;28;20233;-83
2023/07/06 13:18:25;;;;;;;7.07;4.53;;;;;;;;;;5030521;28;20764;-82
2023/07/06 13:20:53;;;;;;;4.65;4.10;;;;;;;;;;5030280;28;20735;-82
2023/07/06 13:23:20;;;;;;;6.57;4.40;;;;;;;;;;5030430;28;20251;-82
2023/07/06 13:25:50;;;;;;;6.60;4.35;;;;;;;;;;5030100;28;20210;-83
2023/07/06 13:28:20;;;;;;;7.82;4.93;;;;;;;;;;5030120;28;20289;-82
2023/07/06 13:30:47;;;;;;;4.65;4.25;;;;;;;;;;5030478;28;20655;-82
2023/07/06 13:33:16;;;;;;;6.53;4.88;;;;;;;;;;5030237;28;20582;-83
2023/07/06 13:35:46;;;;;;;5.53;4.28;;;;;;;;;;5030456;28;20198;-82
2023/07/06 13:38:13;;;;;;;5.10;4.32;;;;;;;;;;5030057;28;20218;-82
2023/07/06 13:40:41;;;;;;;5.55;4.40;;;;;;;;;;5030570;28;20202;-82
2023/07/06 13:43:12;;;;;;;4.45;4.05;;;;;;;;;;5029949;28;20604;-82
2023/07/06 13:45:43;;;;;;;5.65;4.20;;;;;;;;;;5030031;28;20585;-82
2023/07/06 13:48:11;;;;;;;5.97;4.43;;;;;;;;;;5030370;28;20206;-83
2023/07/06 13:50:39;;;;;;;6.82;4.68;;;;;;;;;;5030265;28;20258;-82
2023/07/06 13:53:09;;;;;;;6.30;4.97;;;;;;;;;;5029901;28;20207;-82
2023/07/06 13:55:44;;;;;;;5.85;4.78;;;;;;;;;;5031881;28;20202;-82
2023/07/06 13:58:11;;;;;;;4.80;4.40;;;;;;;;;;5033406;28;20234;-82
2023/07/06 14:00:39;;;;;;;4.50;4.10;;;;;;;;;;5033479;28;20594;-82
2023/07/06 14:03:07;;;;;;;5.57;4.43;;;;;;;;;;5033763;28;20268;-82
2023/07/06 14:05:37;;;;;;;9.32;4.72;;;;;;;;;;5033945;28;20207;-82
2023/07/06 14:08:04;;;;;;;5.40;4.32;;;;;;;;;;5033218;28;20256;-82
2023/07/06 14:10:32;;;;;;;4.95;4.55;;;;;;;;;;5033207;28;20588;-82
2023/07/06 14:12:59;;;;;;;4.47;4.18;;;;;;;;;;5033083;28;20210;-82
2023/07/06 14:15:26;;;;;;;4.40;4.10;;;;;;;;;;5033308;28;20230;-82
2023/07/06 14:17:53;;;;;;;6.47;4.68;;;;;;;;;;5033236;28;20210;-83
2023/07/06 14:20:22;;;;;;;6.30;5.43;;;;;;;;;;5033531;28;20210;-82
2023/07/06 14:22:49;;;;;;;5.07;4.35;;;;;;;;;;5032953;28;20205;-82
2023/07/06 14:25:18;;;;;;;4.60;4.20;;;;;;;;;;5033140;28;20203;-82
2023/07/06 14:27:46;;;;;;;8.57;4.25;;;;;;;;;;5033038;28;20206;-82
2023/07/06 14:30:14;;;;;;;5.20;4.80;;;;;;;;;;5032899;28;20218;-81
2023/07/06 14:32:41;;;;;;;4.72;4.35;;;;;;;;;;5032908;28;20234;-82
2023/07/06 14:35:10;;;;;;;6.45;5.03;;;;;;;;;;5032970;28;20206;-82
2023/07/06 14:37:38;;;;;;;5.25;4.82;;;;;;;;;;5032860;28;20210;-82
2023/07/06 14:40:06;;;;;;;5.32;4.75;;;;;;;;;;5033136;28;20299;-82
2023/07/06 14:42:33;;;;;;;7.90;5.10;;;;;;;;;;5032871;28;20201;-82
2023/07/06 14:45:04;;;;;;;6.53;4.68;;;;;;;;;;5032929;28;20207;-82
2023/07/06 14:47:32;;;;;;;5.03;4.53;;;;;;;;;;5032764;28;20264;-82
2023/07/06 14:49:59;;;;;;;4.60;4.20;;;;;;;;;;5033112;28;20203;-82
2023/07/06 14:52:27;;;;;;;5.15;4.72;;;;;;;;;;5032552;28;20218;-82
2023/07/06 14:54:54;;;;;;;7.88;5.43;;;;;;;;;;5032592;28;20566;-82
2023/07/06 14:57:22;;;;;;;7.93;4.50;;;;;;;;;;5032468;28;20207;-82